GEC8401 OPLA-OMSJ
Flight info
| Callsign | GEC8401 |
|---|---|
| Flight time | N/A |
| Altitude | 34000 |
| Route | VEREN J166 NITIV G214 PG T385 TAPDO A454 VUSET N571 MENSA/N0406F160 N317 NOLSU |
| Aircraft | MD11/H-SDE1E2E3FGHIJ2J3J4J5M1RWXY/LB1D1 |
Departure
| Time | N/A |
|---|---|
| Airport | Allama Iqbal International Airport (OPLA) |
Arrival
| Time | 2026-04-26 23:16 |
|---|---|
| Airport | Sharjah International Airport (OMSJ) |
| Time | Latitude | Longitude | Altitude | Speed | Heading |
|---|---|---|---|---|---|
| 2026-04-26 21:53 | 27.01476 | 64.74583 | 33786 ft | 462 kts | 220° |
| 2026-04-26 21:53 | 26.98929 | 64.72372 | 33786 ft | 463 kts | 220° |
| 2026-04-26 21:53 | 26.94117 | 64.67594 | 33792 ft | 462 kts | 227° |
| 2026-04-26 21:54 | 26.89840 | 64.62227 | 33795 ft | 461 kts | 231° |
| 2026-04-26 21:54 | 26.85785 | 64.56661 | 33795 ft | 462 kts | 232° |
| 2026-04-26 21:55 | 26.81746 | 64.51064 | 33795 ft | 462 kts | 232° |
| 2026-04-26 21:55 | 26.77695 | 64.45502 | 33796 ft | 462 kts | 232° |
| 2026-04-26 21:56 | 26.73621 | 64.39925 | 33795 ft | 463 kts | 232° |
| 2026-04-26 21:56 | 26.69547 | 64.34359 | 33795 ft | 463 kts | 232° |
| 2026-04-26 21:57 | 26.65488 | 64.28820 | 33795 ft | 463 kts | 232° |
| 2026-04-26 21:57 | 26.61395 | 64.23244 | 33802 ft | 464 kts | 232° |
| 2026-04-26 21:58 | 26.57293 | 64.17653 | 33804 ft | 465 kts | 231° |
| 2026-04-26 21:58 | 26.53170 | 64.12064 | 33805 ft | 466 kts | 231° |
| 2026-04-26 21:59 | 26.49040 | 64.06482 | 33804 ft | 466 kts | 232° |
| 2026-04-26 21:59 | 26.44914 | 64.00896 | 33804 ft | 466 kts | 232° |
| 2026-04-26 22:00 | 26.40786 | 63.95308 | 33802 ft | 467 kts | 232° |
| 2026-04-26 22:00 | 26.36655 | 63.89720 | 33803 ft | 466 kts | 232° |
| 2026-04-26 22:01 | 26.32546 | 63.84171 | 33812 ft | 467 kts | 232° |
| 2026-04-26 22:01 | 26.28403 | 63.78576 | 33813 ft | 467 kts | 232° |
| 2026-04-26 22:02 | 26.24961 | 63.73933 | 33813 ft | 467 kts | 231° |
| 2026-04-26 22:02 | 26.20117 | 63.67411 | 33814 ft | 467 kts | 231° |
| 2026-04-26 22:03 | 26.15967 | 63.61840 | 33812 ft | 466 kts | 231° |
| 2026-04-26 22:03 | 26.11825 | 63.56280 | 33813 ft | 467 kts | 231° |
| 2026-04-26 22:04 | 26.07685 | 63.50725 | 33813 ft | 467 kts | 231° |
| 2026-04-26 22:04 | 26.03566 | 63.45203 | 33818 ft | 466 kts | 232° |
| 2026-04-26 22:05 | 25.99403 | 63.39653 | 33824 ft | 466 kts | 231° |
| 2026-04-26 22:05 | 25.95235 | 63.34106 | 33822 ft | 469 kts | 231° |
| 2026-04-26 22:06 | 25.91054 | 63.28537 | 33822 ft | 469 kts | 232° |
| 2026-04-26 22:06 | 25.86879 | 63.22973 | 33821 ft | 469 kts | 232° |
| 2026-04-26 22:07 | 25.82702 | 63.17410 | 33823 ft | 469 kts | 232° |
| 2026-04-26 22:07 | 25.79229 | 63.12790 | 33824 ft | 469 kts | 232° |
| 2026-04-26 22:08 | 25.74340 | 63.06296 | 33822 ft | 469 kts | 232° |
| 2026-04-26 22:08 | 25.70182 | 63.00780 | 33821 ft | 469 kts | 232° |
| 2026-04-26 22:09 | 25.65990 | 62.95230 | 33823 ft | 468 kts | 232° |
| 2026-04-26 22:09 | 25.61807 | 62.89692 | 33824 ft | 469 kts | 232° |
| 2026-04-26 22:10 | 25.57612 | 62.84150 | 33823 ft | 469 kts | 232° |
| 2026-04-26 22:10 | 25.53421 | 62.78621 | 33822 ft | 469 kts | 232° |
| 2026-04-26 22:11 | 25.49219 | 62.73081 | 33824 ft | 469 kts | 232° |
| 2026-04-26 22:11 | 25.45004 | 62.67557 | 33823 ft | 469 kts | 232° |
| 2026-04-26 22:12 | 25.40794 | 62.62037 | 33822 ft | 469 kts | 232° |
| 2026-04-26 22:12 | 25.36594 | 62.56517 | 33822 ft | 469 kts | 232° |
| 2026-04-26 22:13 | 25.32416 | 62.51035 | 33822 ft | 469 kts | 232° |
| 2026-04-26 22:13 | 25.28203 | 62.45518 | 33824 ft | 469 kts | 232° |
| 2026-04-26 22:14 | 25.23993 | 62.40004 | 33822 ft | 469 kts | 232° |
| 2026-04-26 22:14 | 25.20490 | 62.35421 | 33822 ft | 470 kts | 232° |
| 2026-04-26 22:15 | 25.15609 | 62.29046 | 33823 ft | 470 kts | 232° |
| 2026-04-26 22:15 | 25.11373 | 62.23523 | 33824 ft | 471 kts | 232° |
| 2026-04-26 22:16 | 25.07858 | 62.18942 | 33824 ft | 471 kts | 232° |
| 2026-04-26 22:16 | 25.03614 | 62.13418 | 33823 ft | 471 kts | 232° |
| 2026-04-26 22:17 | 24.99366 | 62.07894 | 33822 ft | 472 kts | 232° |
| 2026-04-26 22:17 | 24.95120 | 62.02379 | 33827 ft | 472 kts | 232° |
| 2026-04-26 22:18 | 24.90882 | 61.96910 | 33829 ft | 473 kts | 232° |
| 2026-04-26 22:18 | 24.86609 | 61.91393 | 33829 ft | 473 kts | 232° |
| 2026-04-26 22:19 | 24.82335 | 61.85870 | 33833 ft | 473 kts | 232° |
| 2026-04-26 22:19 | 24.78069 | 61.80350 | 33824 ft | 473 kts | 232° |
| 2026-04-26 22:20 | 24.73790 | 61.74824 | 33822 ft | 474 kts | 232° |
| 2026-04-26 22:20 | 24.69506 | 61.69300 | 33823 ft | 475 kts | 232° |
| 2026-04-26 22:21 | 24.65248 | 61.63817 | 33822 ft | 474 kts | 232° |
| 2026-04-26 22:21 | 24.60959 | 61.58299 | 33823 ft | 475 kts | 232° |
| 2026-04-26 22:22 | 24.56669 | 61.52788 | 33823 ft | 475 kts | 232° |
| 2026-04-26 22:22 | 24.52375 | 61.47270 | 33822 ft | 475 kts | 232° |
| 2026-04-26 22:23 | 24.48073 | 61.41756 | 33823 ft | 475 kts | 232° |
| 2026-04-26 22:23 | 24.43774 | 61.36253 | 33825 ft | 475 kts | 232° |
| 2026-04-26 22:24 | 24.39672 | 61.30588 | 33821 ft | 472 kts | 241° |
| 2026-04-26 22:24 | 24.37239 | 61.23998 | 33816 ft | 465 kts | 259° |
| 2026-04-26 22:25 | 24.36063 | 61.17035 | 33813 ft | 465 kts | 262° |
| 2026-04-26 22:25 | 24.34873 | 61.10046 | 33813 ft | 465 kts | 260° |
| 2026-04-26 22:26 | 24.33519 | 61.03161 | 33813 ft | 465 kts | 259° |
| 2026-04-26 22:26 | 24.32090 | 60.96241 | 33813 ft | 465 kts | 259° |
| 2026-04-26 22:27 | 24.30651 | 60.89327 | 33814 ft | 465 kts | 259° |
| 2026-04-26 22:27 | 24.29213 | 60.82419 | 33825 ft | 464 kts | 259° |
| 2026-04-26 22:28 | 24.27776 | 60.75516 | 33840 ft | 465 kts | 259° |
| 2026-04-26 22:28 | 24.26336 | 60.68616 | 33834 ft | 465 kts | 259° |
| 2026-04-26 22:29 | 24.24891 | 60.61711 | 33807 ft | 465 kts | 259° |
| 2026-04-26 22:29 | 24.23454 | 60.54859 | 33804 ft | 464 kts | 259° |
| 2026-04-26 22:30 | 24.22007 | 60.47965 | 33804 ft | 464 kts | 259° |
| 2026-04-26 22:30 | 24.20554 | 60.41068 | 33804 ft | 464 kts | 259° |
| 2026-04-26 22:31 | 24.19083 | 60.34162 | 33804 ft | 465 kts | 259° |
| 2026-04-26 22:31 | 24.17615 | 60.27310 | 33805 ft | 465 kts | 259° |
| 2026-04-26 22:32 | 24.16143 | 60.20408 | 33795 ft | 465 kts | 259° |
| 2026-04-26 22:32 | 24.14678 | 60.13503 | 33795 ft | 466 kts | 259° |
| 2026-04-26 22:33 | 24.12467 | 60.03123 | 33795 ft | 467 kts | 259° |
| 2026-04-26 22:34 | 24.10984 | 59.96197 | 33795 ft | 466 kts | 259° |
| 2026-04-26 22:34 | 24.09500 | 59.89279 | 33795 ft | 467 kts | 259° |
| 2026-04-26 22:35 | 24.08024 | 59.82412 | 33794 ft | 466 kts | 259° |
| 2026-04-26 22:35 | 24.06535 | 59.75499 | 33788 ft | 467 kts | 259° |
| 2026-04-26 22:36 | 24.05042 | 59.68593 | 33785 ft | 466 kts | 259° |
| 2026-04-26 22:36 | 24.03547 | 59.61691 | 33785 ft | 466 kts | 259° |
| 2026-04-26 22:37 | 24.02050 | 59.54794 | 33785 ft | 466 kts | 259° |
| 2026-04-26 22:37 | 24.00547 | 59.47912 | 33785 ft | 465 kts | 258° |
| 2026-04-26 22:38 | 23.99040 | 59.41078 | 33785 ft | 466 kts | 259° |
| 2026-04-26 22:38 | 23.97527 | 59.34183 | 33786 ft | 466 kts | 259° |
| 2026-04-26 22:39 | 23.96017 | 59.27275 | 33785 ft | 466 kts | 259° |
| 2026-04-26 22:39 | 23.94523 | 59.20375 | 33765 ft | 465 kts | 261° |
| 2026-04-26 22:40 | 23.93979 | 59.13386 | 33778 ft | 459 kts | 276° |
| 2026-04-26 22:40 | 23.95532 | 59.06685 | 33782 ft | 456 kts | 293° |
| 2026-04-26 22:41 | 23.98258 | 59.00424 | 33764 ft | 456 kts | 297° |
| 2026-04-26 22:41 | 24.01064 | 58.94222 | 33781 ft | 455 kts | 296° |
| 2026-04-26 22:42 | 24.03758 | 58.88028 | 33779 ft | 453 kts | 295° |
| 2026-04-26 22:42 | 24.06411 | 58.81787 | 33767 ft | 452 kts | 295° |
| 2026-04-26 22:43 | 24.09051 | 58.75542 | 33781 ft | 451 kts | 294° |
| 2026-04-26 22:43 | 24.11686 | 58.69302 | 33780 ft | 450 kts | 295° |
| 2026-04-26 22:44 | 24.14320 | 58.63078 | 33774 ft | 450 kts | 295° |
| 2026-04-26 22:44 | 24.16935 | 58.56907 | 33781 ft | 449 kts | 295° |
| 2026-04-26 22:45 | 24.19566 | 58.50709 | 33781 ft | 448 kts | 295° |
| 2026-04-26 22:45 | 24.22193 | 58.44500 | 33779 ft | 449 kts | 295° |
| 2026-04-26 22:46 | 24.24815 | 58.38301 | 33782 ft | 448 kts | 295° |
| 2026-04-26 22:46 | 24.27435 | 58.32098 | 33767 ft | 448 kts | 295° |
| 2026-04-26 22:47 | 24.30029 | 58.25945 | 33781 ft | 447 kts | 295° |
| 2026-04-26 22:47 | 24.32641 | 58.19749 | 33786 ft | 447 kts | 295° |
| 2026-04-26 22:48 | 24.35249 | 58.13556 | 33785 ft | 447 kts | 295° |
| 2026-04-26 22:48 | 24.37853 | 58.07352 | 33786 ft | 448 kts | 295° |
| 2026-04-26 22:49 | 24.40452 | 58.01148 | 33784 ft | 447 kts | 295° |
| 2026-04-26 22:49 | 24.43052 | 57.94940 | 33786 ft | 447 kts | 294° |
| 2026-04-26 22:50 | 24.45648 | 57.88734 | 33785 ft | 447 kts | 294° |
| 2026-04-26 22:50 | 24.48230 | 57.82531 | 33785 ft | 447 kts | 294° |
| 2026-04-26 22:51 | 24.50736 | 57.76341 | 33786 ft | 446 kts | 293° |
| 2026-04-26 22:51 | 24.53150 | 57.70003 | 33785 ft | 447 kts | 292° |
| 2026-04-26 22:52 | 24.55515 | 57.63744 | 33786 ft | 447 kts | 292° |
| 2026-04-26 22:52 | 24.57901 | 57.57440 | 33785 ft | 447 kts | 292° |
| 2026-04-26 22:53 | 24.60289 | 57.51134 | 33785 ft | 447 kts | 292° |
| 2026-04-26 22:53 | 24.62675 | 57.44827 | 33786 ft | 447 kts | 292° |
| 2026-04-26 22:54 | 24.65062 | 57.38512 | 33786 ft | 447 kts | 292° |
| 2026-04-26 22:54 | 24.67413 | 57.32247 | 33784 ft | 441 kts | 292° |
| 2026-04-26 22:55 | 24.69739 | 57.26012 | 32868 ft | 441 kts | 292° |
| 2026-04-26 22:55 | 24.70909 | 57.22883 | 32030 ft | 444 kts | 291° |
| 2026-04-26 22:55 | 24.72088 | 57.19727 | 31188 ft | 449 kts | 291° |
| 2026-04-26 22:55 | 24.73280 | 57.16536 | 30309 ft | 454 kts | 291° |
| 2026-04-26 22:56 | 24.74488 | 57.13303 | 29371 ft | 459 kts | 290° |
| 2026-04-26 22:56 | 24.75698 | 57.10058 | 28461 ft | 458 kts | 290° |
| 2026-04-26 22:56 | 24.76889 | 57.06866 | 27685 ft | 454 kts | 290° |
| 2026-04-26 22:56 | 24.78085 | 57.03660 | 26948 ft | 450 kts | 290° |
| 2026-04-26 22:57 | 24.79265 | 57.00488 | 26260 ft | 445 kts | 290° |
| 2026-04-26 22:57 | 24.80437 | 56.97341 | 25582 ft | 442 kts | 290° |
| 2026-04-26 22:57 | 24.81595 | 56.94229 | 24908 ft | 437 kts | 290° |
| 2026-04-26 22:57 | 24.82741 | 56.91144 | 24251 ft | 433 kts | 290° |
| 2026-04-26 22:58 | 24.83877 | 56.88082 | 23587 ft | 429 kts | 290° |
| 2026-04-26 22:58 | 24.85000 | 56.85052 | 22947 ft | 426 kts | 290° |
| 2026-04-26 22:58 | 24.86114 | 56.82046 | 22304 ft | 423 kts | 290° |
| 2026-04-26 22:58 | 24.87221 | 56.79057 | 21665 ft | 419 kts | 290° |
| 2026-04-26 22:59 | 24.88301 | 56.76138 | 21039 ft | 415 kts | 290° |
| 2026-04-26 22:59 | 24.89388 | 56.73199 | 20412 ft | 412 kts | 290° |
| 2026-04-26 22:59 | 24.90466 | 56.70280 | 19788 ft | 408 kts | 290° |
| 2026-04-26 22:59 | 24.91532 | 56.67397 | 19170 ft | 405 kts | 290° |
| 2026-04-26 23:00 | 24.92591 | 56.64527 | 18565 ft | 402 kts | 290° |
| 2026-04-26 23:00 | 24.93643 | 56.61673 | 17956 ft | 399 kts | 290° |
| 2026-04-26 23:00 | 24.94684 | 56.58846 | 17352 ft | 397 kts | 290° |
| 2026-04-26 23:00 | 24.95796 | 56.56075 | 16756 ft | 394 kts | 295° |
| 2026-04-26 23:01 | 24.97141 | 56.53456 | 16167 ft | 392 kts | 300° |
| 2026-04-26 23:01 | 24.98595 | 56.50929 | 15613 ft | 389 kts | 301° |
| 2026-04-26 23:01 | 25.00080 | 56.48445 | 15054 ft | 386 kts | 302° |
| 2026-04-26 23:01 | 25.01562 | 56.45983 | 14483 ft | 384 kts | 302° |
| 2026-04-26 23:02 | 25.03028 | 56.43536 | 13924 ft | 381 kts | 302° |
| 2026-04-26 23:02 | 25.04474 | 56.41110 | 13370 ft | 378 kts | 302° |
| 2026-04-26 23:02 | 25.05889 | 56.38725 | 12830 ft | 375 kts | 302° |
| 2026-04-26 23:02 | 25.07309 | 56.36321 | 12285 ft | 373 kts | 301° |
| 2026-04-26 23:03 | 25.08714 | 56.33931 | 11755 ft | 370 kts | 301° |
| 2026-04-26 23:03 | 25.10104 | 56.31564 | 11232 ft | 366 kts | 302° |
| 2026-04-26 23:03 | 25.11487 | 56.29209 | 10812 ft | 363 kts | 302° |
| 2026-04-26 23:03 | 25.12858 | 56.26874 | 10616 ft | 352 kts | 302° |
| 2026-04-26 23:04 | 25.13708 | 56.25422 | 10541 ft | 327 kts | 302° |
| 2026-04-26 23:04 | 25.14903 | 56.23387 | 10436 ft | 309 kts | 302° |
| 2026-04-26 23:04 | 25.16406 | 56.20830 | 10277 ft | 290 kts | 302° |
| 2026-04-26 23:04 | 25.17482 | 56.19000 | 10153 ft | 278 kts | 302° |
| 2026-04-26 23:05 | 25.18181 | 56.17810 | 10077 ft | 269 kts | 301° |
| 2026-04-26 23:05 | 25.19190 | 56.16090 | 9949 ft | 265 kts | 301° |
| 2026-04-26 23:05 | 25.20161 | 56.14382 | 9816 ft | 261 kts | 298° |
| 2026-04-26 23:05 | 25.20810 | 56.12526 | 9760 ft | 259 kts | 279° |
| 2026-04-26 23:06 | 25.20795 | 56.10535 | 9706 ft | 261 kts | 262° |
| 2026-04-26 23:06 | 25.20446 | 56.08563 | 9645 ft | 262 kts | 258° |
| 2026-04-26 23:06 | 25.20037 | 56.06633 | 9582 ft | 262 kts | 258° |
| 2026-04-26 23:06 | 25.19614 | 56.04677 | 9519 ft | 262 kts | 258° |
| 2026-04-26 23:07 | 25.19194 | 56.02720 | 9457 ft | 262 kts | 258° |
| 2026-04-26 23:07 | 25.18777 | 56.00765 | 9398 ft | 261 kts | 258° |
| 2026-04-26 23:07 | 25.18360 | 55.98799 | 9223 ft | 264 kts | 258° |
| 2026-04-26 23:07 | 25.17942 | 55.96823 | 8784 ft | 265 kts | 258° |
| 2026-04-26 23:08 | 25.17521 | 55.94839 | 8335 ft | 266 kts | 259° |
| 2026-04-26 23:08 | 25.17099 | 55.92842 | 7853 ft | 267 kts | 259° |
| 2026-04-26 23:08 | 25.16680 | 55.90844 | 7378 ft | 265 kts | 259° |
| 2026-04-26 23:08 | 25.16273 | 55.88906 | 6946 ft | 255 kts | 259° |
| 2026-04-26 23:09 | 25.15881 | 55.87047 | 6532 ft | 251 kts | 259° |
| 2026-04-26 23:09 | 25.15489 | 55.85164 | 6123 ft | 253 kts | 262° |
| 2026-04-26 23:09 | 25.15405 | 55.83247 | 5713 ft | 249 kts | 281° |
| 2026-04-26 23:09 | 25.15973 | 55.81491 | 5344 ft | 245 kts | 298° |
| 2026-04-26 23:10 | 25.16834 | 55.79862 | 4956 ft | 245 kts | 301° |
| 2026-04-26 23:10 | 25.17730 | 55.78285 | 4835 ft | 240 kts | 302° |
| 2026-04-26 23:10 | 25.18630 | 55.76721 | 4829 ft | 241 kts | 302° |
| 2026-04-26 23:10 | 25.19529 | 55.75162 | 4874 ft | 236 kts | 302° |
| 2026-04-26 23:11 | 25.20381 | 55.73685 | 4927 ft | 225 kts | 302° |
| 2026-04-26 23:11 | 25.21224 | 55.72225 | 4785 ft | 224 kts | 302° |
| 2026-04-26 23:11 | 25.22020 | 55.70844 | 4508 ft | 203 kts | 302° |
| 2026-04-26 23:11 | 25.22742 | 55.69611 | 4186 ft | 180 kts | 303° |
| 2026-04-26 23:12 | 25.23443 | 55.68514 | 3680 ft | 168 kts | 305° |
| 2026-04-26 23:12 | 25.24116 | 55.67461 | 3397 ft | 166 kts | 303° |
| 2026-04-26 23:12 | 25.24723 | 55.66421 | 2872 ft | 155 kts | 300° |
| 2026-04-26 23:12 | 25.25287 | 55.65384 | 2464 ft | 155 kts | 298° |
| 2026-04-26 23:13 | 25.25866 | 55.64354 | 2226 ft | 160 kts | 300° |
| 2026-04-26 23:13 | 25.26494 | 55.63306 | 2087 ft | 167 kts | 302° |
| 2026-04-26 23:13 | 25.27129 | 55.62221 | 1923 ft | 169 kts | 300° |
| 2026-04-26 23:13 | 25.27748 | 55.61119 | 1768 ft | 168 kts | 299° |
| 2026-04-26 23:14 | 25.28375 | 55.60042 | 1542 ft | 169 kts | 301° |
| 2026-04-26 23:14 | 25.28985 | 55.58935 | 1327 ft | 170 kts | 300° |
| 2026-04-26 23:14 | 25.29629 | 55.57831 | 1101 ft | 171 kts | 300° |
| 2026-04-26 23:14 | 25.30254 | 55.56714 | 902 ft | 170 kts | 301° |
| 2026-04-26 23:15 | 25.30894 | 55.55622 | 647 ft | 168 kts | 301° |
| 2026-04-26 23:15 | 25.31515 | 55.54521 | 419 ft | 168 kts | 301° |
| 2026-04-26 23:15 | 25.32143 | 55.53435 | 200 ft | 168 kts | 301° |
| 2026-04-26 23:15 | 25.32722 | 55.52415 | 123 ft | 137 kts | 302° |
| 2026-04-26 23:16 | 25.33152 | 55.51676 | 122 ft | 94 kts | 302° |
| 2026-04-26 23:16 | 25.33420 | 55.51208 | 120 ft | 39 kts | 303° |
| 2026-04-26 23:16 | 25.33421 | 55.50987 | 120 ft | 26 kts | 218° |
| 2026-04-26 23:16 | 25.33278 | 55.50881 | 119 ft | 22 kts | 212° |
| 2026-04-26 23:17 | 25.33156 | 55.50865 | 118 ft | 13 kts | 142° |
| 2026-04-26 23:17 | 25.33116 | 55.50933 | 118 ft | 11 kts | 121° |
| 2026-04-26 23:17 | 25.33071 | 55.51011 | 118 ft | 14 kts | 123° |
| 2026-04-26 23:17 | 25.33008 | 55.51119 | 120 ft | 19 kts | 123° |
| 2026-04-26 23:18 | 25.32936 | 55.51238 | 119 ft | 11 kts | 133° |
| 2026-04-26 23:18 | 25.32906 | 55.51248 | 126 ft | 5 kts | 187° |
| 2026-04-26 23:18 | 25.32838 | 55.51211 | 119 ft | 13 kts | 211° |
| 2026-04-26 23:18 | 25.32766 | 55.51162 | 119 ft | 11 kts | 212° |
| 2026-04-26 23:19 | 25.32702 | 55.51116 | 119 ft | 10 kts | 212° |
| 2026-04-26 23:19 | 25.32682 | 55.51093 | 118 ft | 2 kts | 257° |
| 2026-04-26 23:19 | 25.32687 | 55.51048 | 127 ft | 1 kts | 284° |
| 2026-04-26 23:19 | 25.32691 | 55.51036 | 118 ft | 3 kts | 293° |
| 2026-04-26 23:20 | 25.32698 | 55.51022 | 121 ft | 2 kts | 302° |
| 2026-04-26 23:20 | 25.32703 | 55.51015 | 120 ft | 0 kts | 302° |